createdAt,value
2018-12-20T00:01:56.395Z,1.31
2018-12-20T00:04:25.400Z,1.31
2018-12-20T00:06:54.267Z,1.31
2018-12-20T00:09:24.039Z,1.28
2018-12-20T00:11:52.991Z,1.40
2018-12-20T00:14:21.938Z,1.32
2018-12-20T00:16:54.972Z,1.23
2018-12-20T00:19:23.859Z,1.29
2018-12-20T00:21:52.863Z,1.31
2018-12-20T00:24:22.015Z,1.33
2018-12-20T00:26:50.972Z,1.30
2018-12-20T00:29:19.890Z,1.30
2018-12-20T00:31:48.894Z,1.36
2018-12-20T00:34:17.868Z,1.43
2018-12-20T00:36:46.660Z,1.35
2018-12-20T00:39:15.521Z,1.42
2018-12-20T00:41:44.515Z,1.38
2018-12-20T00:44:13.371Z,1.31
2018-12-20T00:46:42.287Z,1.30
2018-12-20T00:49:11.169Z,1.27
2018-12-20T00:51:40.262Z,1.35
2018-12-20T00:54:09.155Z,1.35
2018-12-20T00:56:38.076Z,1.30
2018-12-20T00:59:06.923Z,1.25
2018-12-20T01:01:35.788Z,1.41
2018-12-20T01:04:04.742Z,1.31
2018-12-20T01:06:33.623Z,1.30
2018-12-20T01:09:03.072Z,1.32
2018-12-20T01:11:32.081Z,1.29
2018-12-20T01:14:01.024Z,1.30
2018-12-20T01:16:29.955Z,1.33
2018-12-20T01:18:58.876Z,1.36
2018-12-20T01:21:27.988Z,1.30
2018-12-20T01:23:56.992Z,1.27
2018-12-20T01:26:25.957Z,1.25
2018-12-20T01:28:55.095Z,1.21
2018-12-20T01:31:24.104Z,1.27
2018-12-20T01:33:53.145Z,1.24
2018-12-20T01:36:22.133Z,1.19
2018-12-20T01:38:51.016Z,1.16
2018-12-20T01:41:19.973Z,1.16
2018-12-20T01:43:48.868Z,1.13
2018-12-20T01:46:17.857Z,1.07
2018-12-20T01:48:46.745Z,1.11
2018-12-20T01:51:15.591Z,1.12
2018-12-20T01:53:44.805Z,1.13
2018-12-20T01:56:13.816Z,1.14
2018-12-20T01:58:42.722Z,1.10
2018-12-20T02:01:11.649Z,1.20
2018-12-20T02:03:40.474Z,1.17
2018-12-20T02:06:09.395Z,1.14
2018-12-20T02:08:38.322Z,1.13
2018-12-20T02:11:07.443Z,1.13
2018-12-20T02:13:36.366Z,1.12
2018-12-20T02:16:05.360Z,1.05
2018-12-20T02:18:34.325Z,1.02
2018-12-20T02:21:03.345Z,1.02
2018-12-20T02:23:32.272Z,1.06
2018-12-20T02:26:01.110Z,1.03
2018-12-20T02:28:29.981Z,1.10
2018-12-20T02:30:58.901Z,1.11
2018-12-20T02:33:29.201Z,1.01
2018-12-20T02:35:58.182Z,1.14
2018-12-20T02:38:27.127Z,1.03
2018-12-20T02:40:56.360Z,1.05
2018-12-20T02:43:25.347Z,1.10
2018-12-20T02:45:54.483Z,1.02
2018-12-20T02:48:23.431Z,1.04
2018-12-20T02:50:52.488Z,1.12
2018-12-20T02:53:21.618Z,1.20
2018-12-20T02:55:50.486Z,1.17
2018-12-20T02:58:19.634Z,1.09
2018-12-20T03:00:48.552Z,1.04
2018-12-20T03:03:17.381Z,1.08
2018-12-20T03:05:46.517Z,1.02
2018-12-20T03:08:15.405Z,0.99
2018-12-20T03:10:44.469Z,1.02
2018-12-20T03:13:13.598Z,1.06
2018-12-20T03:15:42.525Z,1.10
2018-12-20T03:18:11.556Z,1.06
2018-12-20T03:20:40.745Z,1.07
2018-12-20T03:23:09.706Z,0.96
2018-12-20T03:25:38.840Z,0.89
2018-12-20T03:28:08.024Z,0.99
2018-12-20T03:30:37.333Z,0.96
2018-12-20T03:33:10.308Z,0.96
2018-12-20T03:35:37.926Z,1.01
2018-12-20T03:38:06.864Z,1.02
2018-12-20T03:40:37.038Z,0.92
2018-12-20T03:43:06.086Z,0.96
2018-12-20T03:45:36.072Z,0.94
2018-12-20T03:48:05.021Z,0.84
2018-12-20T03:50:34.125Z,0.97
2018-12-20T03:53:03.119Z,0.96
2018-12-20T03:55:32.081Z,0.86
2018-12-20T03:58:01.046Z,0.86
2018-12-20T04:00:30.114Z,0.89
2018-12-20T04:02:59.224Z,0.87
2018-12-20T04:05:28.277Z,0.92
2018-12-20T04:07:57.499Z,0.80
2018-12-20T04:10:26.600Z,0.75
2018-12-20T04:12:55.515Z,0.78
2018-12-20T04:15:24.615Z,0.89
2018-12-20T04:17:53.737Z,0.87
2018-12-20T04:20:22.823Z,0.87
2018-12-20T04:22:51.945Z,0.76
2018-12-20T04:25:22.004Z,0.80
2018-12-20T04:27:50.945Z,0.76
2018-12-20T04:30:19.891Z,0.79
2018-12-20T04:32:48.947Z,0.92
2018-12-20T04:35:17.867Z,0.77
2018-12-20T04:37:46.721Z,0.77
2018-12-20T04:40:15.659Z,0.86
2018-12-20T04:42:44.866Z,0.86
2018-12-20T04:45:14.084Z,0.76
2018-12-20T04:47:43.053Z,0.73
2018-12-20T04:50:13.002Z,0.85
2018-12-20T04:52:41.938Z,0.74
2018-12-20T04:55:10.873Z,0.70
2018-12-20T04:57:40.086Z,0.74
2018-12-20T05:00:09.149Z,0.84
2018-12-20T05:02:38.134Z,0.75
2018-12-20T05:05:07.369Z,0.76
2018-12-20T05:07:36.477Z,0.81
2018-12-20T05:10:06.146Z,0.78
2018-12-20T05:12:35.021Z,0.78
2018-12-20T05:15:04.009Z,0.73
2018-12-20T05:17:33.081Z,0.75
2018-12-20T05:20:02.067Z,0.76
2018-12-20T05:22:31.075Z,0.77
2018-12-20T05:24:59.903Z,0.72
2018-12-20T05:27:28.980Z,0.73
2018-12-20T05:29:58.059Z,0.76
2018-12-20T05:32:27.216Z,0.77
2018-12-20T05:34:56.336Z,0.74
2018-12-20T05:37:25.235Z,0.70
2018-12-20T05:39:54.159Z,0.75
2018-12-20T05:42:23.122Z,0.75
2018-12-20T05:44:52.308Z,0.70
2018-12-20T05:47:21.544Z,0.71
2018-12-20T05:49:50.695Z,0.68
2018-12-20T05:52:19.971Z,0.82
2018-12-20T05:54:48.813Z,0.76
2018-12-20T05:57:17.755Z,0.80
2018-12-20T05:59:46.603Z,0.77
2018-12-20T06:02:15.504Z,0.84
2018-12-20T06:04:44.554Z,0.93
2018-12-20T06:07:13.474Z,0.91
2018-12-20T06:09:42.337Z,0.90
2018-12-20T06:12:11.279Z,0.91
2018-12-20T06:14:40.272Z,0.90
2018-12-20T06:17:09.312Z,0.85
2018-12-20T06:19:38.169Z,0.91
2018-12-20T06:22:07.095Z,0.83
2018-12-20T06:24:35.946Z,0.85
2018-12-20T06:27:04.895Z,0.81
2018-12-20T06:29:33.787Z,0.77
2018-12-20T06:32:02.634Z,0.87
2018-12-20T06:34:31.457Z,0.80
2018-12-20T06:37:00.351Z,0.83
2018-12-20T06:39:29.198Z,0.73
2018-12-20T06:41:58.031Z,0.75
2018-12-20T06:44:26.858Z,0.93
2018-12-20T06:46:55.739Z,0.81
2018-12-20T06:49:24.550Z,0.85
2018-12-20T06:51:53.389Z,0.84
2018-12-20T06:54:22.286Z,0.78
2018-12-20T06:56:51.168Z,0.85
2018-12-20T06:59:20.063Z,0.85
2018-12-20T07:01:49.030Z,0.83
2018-12-20T07:04:17.943Z,0.83
2018-12-20T07:06:46.956Z,0.79
2018-12-20T07:09:15.945Z,0.85
2018-12-20T07:11:44.779Z,0.93
2018-12-20T07:14:13.606Z,0.94
2018-12-20T07:16:42.471Z,0.85
2018-12-20T07:19:11.390Z,0.85
2018-12-20T07:21:40.283Z,0.96
2018-12-20T07:24:09.232Z,1.09
2018-12-20T07:26:38.172Z,0.93
2018-12-20T07:29:07.075Z,1.00
2018-12-20T07:31:36.056Z,1.02
2018-12-20T07:34:04.888Z,0.94
2018-12-20T07:36:33.803Z,1.01
2018-12-20T07:39:02.837Z,0.99
2018-12-20T07:41:31.783Z,1.12
2018-12-20T07:44:00.611Z,1.10
2018-12-20T07:46:37.551Z,1.19
2018-12-20T07:49:00.243Z,1.25
2018-12-20T07:51:29.247Z,1.23
2018-12-20T07:53:58.081Z,1.33
2018-12-20T07:56:26.983Z,1.25
2018-12-20T07:58:55.915Z,1.22
2018-12-20T08:01:24.946Z,1.17
2018-12-20T08:03:53.791Z,1.22
2018-12-20T08:06:22.734Z,1.30
2018-12-20T08:08:51.569Z,1.29
2018-12-20T08:11:20.434Z,1.31
2018-12-20T08:13:49.352Z,1.29
2018-12-20T08:16:18.179Z,1.33
2018-12-20T08:18:47.016Z,1.31
2018-12-20T08:21:15.931Z,1.33
2018-12-20T08:23:44.790Z,1.35
2018-12-20T08:26:13.686Z,1.34
2018-12-20T08:28:42.583Z,1.44
2018-12-20T08:31:11.427Z,1.53
2018-12-20T08:33:40.316Z,1.69
2018-12-20T08:36:09.366Z,1.79
2018-12-20T08:38:38.352Z,1.85
2018-12-20T08:41:09.042Z,1.78
2018-12-20T08:43:38.441Z,1.91
2018-12-20T08:46:07.288Z,1.95
2018-12-20T08:48:36.251Z,2.00
2018-12-20T08:51:05.303Z,2.09
2018-12-20T08:53:34.127Z,2.10
2018-12-20T08:56:03.005Z,2.21
2018-12-20T08:58:31.870Z,2.32
2018-12-20T09:01:00.771Z,2.23
2018-12-20T09:03:29.591Z,2.31
2018-12-20T09:05:58.579Z,2.33
2018-12-20T09:08:27.481Z,2.38
2018-12-20T09:10:56.321Z,2.32
2018-12-20T09:13:25.231Z,2.47
2018-12-20T09:15:54.010Z,2.50
2018-12-20T09:18:23.010Z,2.47
2018-12-20T09:20:51.822Z,2.35
2018-12-20T09:23:20.654Z,2.32
2018-12-20T09:25:49.521Z,2.44
2018-12-20T09:28:18.378Z,2.54
2018-12-20T09:30:47.212Z,2.62
2018-12-20T09:33:16.471Z,2.62
2018-12-20T09:35:45.418Z,2.50
2018-12-20T09:38:14.290Z,2.37
2018-12-20T09:40:43.259Z,2.36
2018-12-20T09:43:12.158Z,2.33
2018-12-20T09:45:41.017Z,2.37
2018-12-20T09:48:09.912Z,2.49
2018-12-20T09:50:38.776Z,2.46
2018-12-20T09:53:07.626Z,2.62
2018-12-20T09:55:36.496Z,2.85
2018-12-20T09:58:05.402Z,2.98
2018-12-20T10:00:34.236Z,3.23
2018-12-20T10:03:03.078Z,3.30
2018-12-20T10:05:31.971Z,3.51
2018-12-20T10:08:00.955Z,3.25
2018-12-20T10:10:29.850Z,3.15
2018-12-20T10:12:58.755Z,3.05
2018-12-20T10:15:27.594Z,3.22
2018-12-20T10:17:56.418Z,3.25
2018-12-20T10:20:25.411Z,3.42
2018-12-20T10:22:54.248Z,3.37
2018-12-20T10:25:23.155Z,3.22
2018-12-20T10:27:52.079Z,3.13
2018-12-20T10:30:20.986Z,2.97
2018-12-20T10:32:49.856Z,2.93
2018-12-20T10:35:18.755Z,2.86
2018-12-20T10:37:47.628Z,2.88
2018-12-20T10:40:16.514Z,2.94
2018-12-20T10:42:45.424Z,2.95
2018-12-20T10:45:14.454Z,3.08
2018-12-20T10:47:43.410Z,3.49
2018-12-20T10:50:13.154Z,3.95
2018-12-20T10:52:41.988Z,3.99
2018-12-20T10:55:10.906Z,3.88
2018-12-20T10:57:41.069Z,3.79
2018-12-20T11:00:10.019Z,3.59
2018-12-20T11:02:44.333Z,3.48
2018-12-20T11:05:18.443Z,3.50
2018-12-20T11:07:52.667Z,3.38
2018-12-20T11:10:25.887Z,3.41
2018-12-20T11:12:54.715Z,3.42
2018-12-20T11:15:23.558Z,3.33
2018-12-20T11:17:52.365Z,3.28
2018-12-20T11:20:21.206Z,3.35
2018-12-20T11:22:50.106Z,3.26
2018-12-20T11:25:18.987Z,3.24
2018-12-20T11:27:47.887Z,3.12
2018-12-20T11:30:16.903Z,3.13
2018-12-20T11:32:45.732Z,3.16
2018-12-20T11:35:14.625Z,3.20
2018-12-20T11:37:49.892Z,3.42
2018-12-20T11:40:19.054Z,3.36
2018-12-20T11:42:47.963Z,3.41
2018-12-20T11:45:16.818Z,3.47
2018-12-20T11:47:46.272Z,3.55
2018-12-20T11:50:15.255Z,3.46
2018-12-20T11:52:44.238Z,3.52
2018-12-20T11:55:14.140Z,3.65
2018-12-20T11:57:42.979Z,3.64
2018-12-20T12:00:12.127Z,3.46
2018-12-20T12:02:41.445Z,3.59
2018-12-20T12:05:10.366Z,3.56
2018-12-20T12:07:39.183Z,4.06
2018-12-20T12:10:08.044Z,4.21
2018-12-20T12:12:36.918Z,4.09
2018-12-20T12:15:06.715Z,3.88
2018-12-20T12:17:35.555Z,3.80
2018-12-20T12:20:05.219Z,3.79
2018-12-20T12:22:34.148Z,3.56
2018-12-20T12:25:03.027Z,3.70
2018-12-20T12:27:31.893Z,3.93
2018-12-20T12:30:00.797Z,4.29
2018-12-20T12:32:29.710Z,5.05
2018-12-20T12:34:58.591Z,7.17
2018-12-20T12:37:27.455Z,8.39
2018-12-20T12:39:56.351Z,8.06
2018-12-20T12:42:25.247Z,7.38
2018-12-20T12:44:55.246Z,6.24
2018-12-20T12:48:29.215Z,5.56
2018-12-20T12:50:58.066Z,4.93
2018-12-20T12:53:26.913Z,4.81
2018-12-20T12:55:55.769Z,4.54
2018-12-20T12:58:24.610Z,4.54
2018-12-20T13:00:53.446Z,5.14
2018-12-20T13:03:22.314Z,5.36
2018-12-20T13:05:51.130Z,5.58
2018-12-20T13:08:19.950Z,5.80
2018-12-20T13:10:48.904Z,6.88
2018-12-20T13:13:17.828Z,8.03
2018-12-20T13:15:46.801Z,8.34
2018-12-20T13:18:15.654Z,7.80
2018-12-20T13:20:44.501Z,6.99
2018-12-20T13:23:13.342Z,6.05
2018-12-20T13:25:42.331Z,5.60
2018-12-20T13:28:11.219Z,5.22
2018-12-20T13:30:40.063Z,5.04
2018-12-20T13:33:09.848Z,4.65
2018-12-20T13:35:38.695Z,4.48
2018-12-20T13:38:07.604Z,4.26
2018-12-20T13:40:36.465Z,4.10
2018-12-20T13:43:05.391Z,4.13
2018-12-20T13:45:34.367Z,3.96
2018-12-20T13:48:03.291Z,4.04
2018-12-20T13:50:32.146Z,4.33
2018-12-20T13:53:00.974Z,4.47
2018-12-20T13:55:29.918Z,4.28
2018-12-20T13:57:58.746Z,3.91
2018-12-20T14:00:27.602Z,3.97
2018-12-20T14:02:56.434Z,3.95
2018-12-20T14:05:25.258Z,3.62
2018-12-20T14:07:58.826Z,3.93
2018-12-20T14:10:25.052Z,4.18
2018-12-20T14:12:53.970Z,4.18
2018-12-20T14:15:22.896Z,3.93
2018-12-20T14:17:51.736Z,3.67
2018-12-20T14:20:20.583Z,3.44
2018-12-20T14:22:49.471Z,3.44
2018-12-20T14:25:18.313Z,3.35
2018-12-20T14:27:47.455Z,3.27
2018-12-20T14:30:16.389Z,3.20
2018-12-20T14:32:45.232Z,2.92
2018-12-20T14:35:14.144Z,2.71
2018-12-20T14:37:43.130Z,2.49
2018-12-20T14:40:12.076Z,2.42
2018-12-20T14:42:40.975Z,2.35
2018-12-20T14:45:09.975Z,2.31
2018-12-20T14:47:38.918Z,2.29
2018-12-20T14:50:09.009Z,2.16
2018-12-20T14:52:37.872Z,2.15
2018-12-20T14:55:08.315Z,2.10
2018-12-20T14:57:37.172Z,2.05
2018-12-20T15:00:08.164Z,1.99
2018-12-20T15:02:37.104Z,1.91
2018-12-20T15:05:06.647Z,1.83
2018-12-20T15:07:35.628Z,1.81
2018-12-20T15:10:06.250Z,1.72
2018-12-20T15:12:35.181Z,1.57
2018-12-20T15:15:04.137Z,1.54
2018-12-20T15:17:33.008Z,1.37
2018-12-20T15:20:01.939Z,1.36
2018-12-20T15:22:30.807Z,1.30
2018-12-20T15:24:59.687Z,1.34
2018-12-20T15:27:28.543Z,1.35
2018-12-20T15:29:57.373Z,1.29
2018-12-20T15:32:26.271Z,1.25
2018-12-20T15:34:55.241Z,1.29
2018-12-20T15:37:24.077Z,1.32
2018-12-20T15:39:52.903Z,1.36
2018-12-20T15:42:22.814Z,1.45
2018-12-20T15:44:51.643Z,1.50
2018-12-20T15:47:20.530Z,1.53
2018-12-20T15:49:50.105Z,1.59
2018-12-20T15:52:18.964Z,1.62
2018-12-20T15:54:47.956Z,1.56
2018-12-20T15:57:16.794Z,1.56
2018-12-20T15:59:45.670Z,1.55
2018-12-20T16:02:14.542Z,1.52
2018-12-20T16:04:43.434Z,1.66
2018-12-20T16:07:12.313Z,1.67
2018-12-20T16:09:42.342Z,1.69
2018-12-20T16:12:11.315Z,1.81
2018-12-20T16:14:40.739Z,1.83
2018-12-20T16:17:09.811Z,2.11
2018-12-20T16:19:38.684Z,2.36
2018-12-20T16:22:07.691Z,2.24
2018-12-20T16:24:36.559Z,2.17
2018-12-20T16:27:05.428Z,2.17
2018-12-20T16:29:34.273Z,2.21
2018-12-20T16:32:03.172Z,2.13
2018-12-20T16:34:32.123Z,2.13
2018-12-20T16:37:01.007Z,2.18
2018-12-20T16:39:29.888Z,2.17
2018-12-20T16:41:58.710Z,2.08
2018-12-20T16:44:27.550Z,2.06
2018-12-20T16:46:56.420Z,2.06
2018-12-20T16:49:25.324Z,2.06
2018-12-20T16:51:54.247Z,2.09
2018-12-20T16:54:23.380Z,2.05
2018-12-20T16:56:52.251Z,2.04
2018-12-20T16:59:21.074Z,1.98
2018-12-20T17:01:49.972Z,1.98
2018-12-20T17:04:18.863Z,1.90
2018-12-20T17:06:47.673Z,1.77
2018-12-20T17:09:16.631Z,1.72
2018-12-20T17:11:45.582Z,1.74
2018-12-20T17:14:14.488Z,1.71
2018-12-20T17:16:43.317Z,1.69
2018-12-20T17:19:12.203Z,1.71
2018-12-20T17:21:41.035Z,1.75
2018-12-20T17:24:09.923Z,1.79
2018-12-20T17:26:38.854Z,1.78
2018-12-20T17:29:07.687Z,1.85
2018-12-20T17:31:36.702Z,1.89
2018-12-20T17:34:05.612Z,1.88
2018-12-20T17:36:34.678Z,1.74
2018-12-20T17:39:05.297Z,1.56
2018-12-20T17:41:34.205Z,1.70
2018-12-20T17:44:03.786Z,1.63
2018-12-20T17:46:32.774Z,1.46
2018-12-20T17:49:01.719Z,1.26
2018-12-20T17:51:30.714Z,1.07
2018-12-20T17:53:59.634Z,1.11
2018-12-20T17:56:28.566Z,1.19
2018-12-20T17:58:57.500Z,1.17
2018-12-20T18:01:26.423Z,1.08
2018-12-20T18:03:55.264Z,0.99
2018-12-20T18:06:24.182Z,0.83
2018-12-20T18:08:53.036Z,0.77
2018-12-20T18:11:22.013Z,0.74
2018-12-20T18:13:50.943Z,0.68
2018-12-20T18:16:19.831Z,0.72
2018-12-20T18:18:48.731Z,0.73
2018-12-20T18:21:17.560Z,0.84
2018-12-20T18:23:47.509Z,0.90
2018-12-20T18:26:16.405Z,0.88
2018-12-20T18:28:47.373Z,0.79
2018-12-20T18:31:16.230Z,0.70
2018-12-20T18:33:45.187Z,0.66
2018-12-20T18:36:14.107Z,0.67
2018-12-20T18:38:43.912Z,0.79
2018-12-20T18:41:12.890Z,0.83
2018-12-20T18:43:41.871Z,0.93
2018-12-20T18:46:12.050Z,1.02
2018-12-20T18:48:41.062Z,1.09
2018-12-20T18:51:10.012Z,1.14
2018-12-20T18:53:38.882Z,1.10
2018-12-20T18:56:07.715Z,1.16
2018-12-20T18:58:36.592Z,1.18
2018-12-20T19:01:05.492Z,1.13
2018-12-20T19:03:34.390Z,1.24
2018-12-20T19:06:03.273Z,1.59
2018-12-20T19:08:32.218Z,1.62
2018-12-20T19:11:01.242Z,1.56
2018-12-20T19:13:30.209Z,1.44
2018-12-20T19:15:59.124Z,1.37
2018-12-20T19:18:27.965Z,1.28
2018-12-20T19:20:57.251Z,1.23
2018-12-20T19:23:26.147Z,1.19
2018-12-20T19:25:55.051Z,1.19
2018-12-20T19:28:23.965Z,1.20
2018-12-20T19:30:52.848Z,1.30
2018-12-20T19:33:21.774Z,1.27
2018-12-20T19:35:50.655Z,1.28
2018-12-20T19:38:20.562Z,1.21
2018-12-20T19:40:49.680Z,1.31
2018-12-20T19:43:18.806Z,1.30
2018-12-20T19:45:47.696Z,1.35
2018-12-20T19:48:16.525Z,1.37
2018-12-20T19:50:45.448Z,1.43
2018-12-20T19:53:14.392Z,1.42
2018-12-20T19:55:43.515Z,1.46
2018-12-20T19:58:12.410Z,1.52
2018-12-20T20:00:41.566Z,1.57
2018-12-20T20:03:10.521Z,1.55
2018-12-20T20:05:39.567Z,1.68
2018-12-20T20:08:08.463Z,1.65
2018-12-20T20:10:37.466Z,1.63
2018-12-20T20:13:06.390Z,1.57
2018-12-20T20:15:35.226Z,1.50
2018-12-20T20:18:04.381Z,1.51
2018-12-20T20:20:33.628Z,1.60
2018-12-20T20:23:02.594Z,1.61
2018-12-20T20:25:31.542Z,1.71
2018-12-20T20:28:00.494Z,1.65
2018-12-20T20:30:29.368Z,1.67
2018-12-20T20:32:58.309Z,1.68
2018-12-20T20:35:27.182Z,1.68
2018-12-20T20:37:56.080Z,1.62
2018-12-20T20:40:24.996Z,1.63
2018-12-20T20:42:53.886Z,1.61
2018-12-20T20:45:22.769Z,1.50
2018-12-20T20:47:51.759Z,1.46
2018-12-20T20:50:22.692Z,1.38
2018-12-20T20:52:51.465Z,1.23
2018-12-20T20:55:20.450Z,1.09
2018-12-20T20:57:49.351Z,0.93
2018-12-20T21:00:18.246Z,0.77
2018-12-20T21:02:47.249Z,0.71
2018-12-20T21:05:16.316Z,0.71
2018-12-20T21:07:45.235Z,0.74
2018-12-20T21:10:14.208Z,0.71
2018-12-20T21:12:44.003Z,0.72
2018-12-20T21:15:12.878Z,0.71
2018-12-20T21:17:41.713Z,0.83
2018-12-20T21:20:12.264Z,1.09
2018-12-20T21:22:41.229Z,1.02
2018-12-20T21:25:10.147Z,0.83
2018-12-20T21:27:38.999Z,0.67
2018-12-20T21:30:09.423Z,0.56
2018-12-20T21:32:38.323Z,0.48
2018-12-20T21:35:07.958Z,0.40
2018-12-20T21:37:36.819Z,0.37
2018-12-20T21:40:06.731Z,0.37
2018-12-20T21:42:35.716Z,0.38
2018-12-20T21:45:04.915Z,0.37
2018-12-20T21:47:33.886Z,0.37
2018-12-20T21:50:02.742Z,0.27
2018-12-20T21:52:31.607Z,0.23
2018-12-20T21:55:00.458Z,0.17
2018-12-20T21:57:29.310Z,0.28
2018-12-20T22:00:01.382Z,0.38
2018-12-20T22:02:29.122Z,0.76
2018-12-20T22:04:57.973Z,1.07
2018-12-20T22:07:26.913Z,1.00
2018-12-20T22:09:55.775Z,0.92
2018-12-20T22:12:24.619Z,0.91
2018-12-20T22:14:53.463Z,0.94
2018-12-20T22:17:22.363Z,1.00
2018-12-20T22:19:58.452Z,1.06
2018-12-20T22:22:22.030Z,1.15
2018-12-20T22:24:50.955Z,1.33
2018-12-20T22:27:19.799Z,1.45
2018-12-20T22:29:49.088Z,1.41
2018-12-20T22:32:17.926Z,1.46
2018-12-20T22:34:46.765Z,1.51
2018-12-20T22:37:15.624Z,1.57
2018-12-20T22:39:44.479Z,1.61
2018-12-20T22:42:13.388Z,1.62
2018-12-20T22:44:42.237Z,1.67
2018-12-20T22:47:11.154Z,1.69
2018-12-20T22:49:39.992Z,1.73
2018-12-20T22:52:08.860Z,1.84
2018-12-20T22:54:37.760Z,1.88
2018-12-20T22:57:06.608Z,1.89
2018-12-20T22:59:35.469Z,1.92
2018-12-20T23:02:04.711Z,1.99
2018-12-20T23:04:33.906Z,2.06
2018-12-20T23:07:02.751Z,2.06
2018-12-20T23:09:31.687Z,2.07
2018-12-20T23:12:00.519Z,2.17
2018-12-20T23:14:29.395Z,2.24
2018-12-20T23:16:58.227Z,2.11
2018-12-20T23:19:27.058Z,2.07
2018-12-20T23:21:55.967Z,2.06
2018-12-20T23:24:24.807Z,2.08
2018-12-20T23:26:53.834Z,2.09
2018-12-20T23:29:22.822Z,2.20
2018-12-20T23:31:51.711Z,2.18
2018-12-20T23:34:20.550Z,2.31
2018-12-20T23:36:49.394Z,2.33
2018-12-20T23:39:18.269Z,2.33
2018-12-20T23:41:47.212Z,2.27
2018-12-20T23:44:16.158Z,2.26
2018-12-20T23:46:45.182Z,2.18
2018-12-20T23:49:14.006Z,2.24
2018-12-20T23:51:45.405Z,2.22
2018-12-20T23:54:13.808Z,2.28
2018-12-20T23:56:42.804Z,2.18
2018-12-20T23:59:11.717Z,2.21
